createdAt,value
2022-11-23T00:03:32.282Z,7.90
2022-11-23T00:07:40.832Z,7.90
2022-11-23T00:11:49.573Z,8.00
2022-11-23T00:15:58.199Z,8.00
2022-11-23T00:20:08.187Z,8.10
2022-11-23T00:24:16.789Z,8.10
2022-11-23T00:28:25.418Z,8.10
2022-11-23T00:32:34.052Z,8.10
2022-11-23T00:36:42.573Z,8.20
2022-11-23T00:40:51.201Z,8.20
2022-11-23T00:45:00.047Z,8.20
2022-11-23T00:49:09.953Z,8.20
2022-11-23T00:53:18.625Z,8.20
2022-11-23T00:57:46.914Z,8.20
2022-11-23T01:01:55.459Z,8.30
2022-11-23T01:06:12.925Z,8.30
2022-11-23T01:10:21.507Z,8.30
2022-11-23T01:14:30.062Z,8.30
2022-11-23T01:18:38.657Z,8.30
2022-11-23T01:22:47.288Z,8.30
2022-11-23T01:26:56.822Z,8.30
2022-11-23T01:31:10.917Z,8.30
2022-11-23T01:35:19.624Z,8.30
2022-11-23T01:39:28.534Z,8.30
2022-11-23T01:43:37.292Z,8.30
2022-11-23T01:47:46.022Z,8.30
2022-11-23T01:51:58.036Z,8.30
2022-11-23T01:56:09.950Z,8.30
2022-11-23T02:00:18.973Z,8.30
2022-11-23T02:04:30.675Z,8.30
2022-11-23T02:08:39.898Z,8.30
2022-11-23T02:12:48.473Z,8.30
2022-11-23T02:16:59.736Z,8.40
2022-11-23T02:21:08.363Z,8.40
2022-11-23T02:25:41.261Z,8.40
2022-11-23T02:29:51.732Z,8.40
2022-11-23T02:34:00.361Z,8.40
2022-11-23T02:38:08.897Z,8.40
2022-11-23T02:42:37.356Z,8.50
2022-11-23T02:46:46.230Z,8.50
2022-11-23T02:50:54.846Z,8.50
2022-11-23T02:55:03.475Z,8.50
2022-11-23T02:59:12.073Z,8.50
2022-11-23T03:03:21.856Z,8.50
2022-11-23T03:07:30.479Z,8.50
2022-11-23T03:11:39.130Z,8.50
2022-11-23T03:15:48.057Z,8.50
2022-11-23T03:19:56.641Z,8.50
2022-11-23T03:24:05.718Z,8.50
2022-11-23T03:28:14.198Z,8.50
2022-11-23T03:32:22.796Z,8.50
2022-11-23T03:36:31.401Z,8.50
2022-11-23T03:40:39.930Z,8.50
2022-11-23T03:44:48.486Z,8.50
2022-11-23T03:48:57.286Z,8.50
2022-11-23T03:53:07.157Z,8.50
2022-11-23T03:57:15.748Z,8.50
2022-11-23T04:01:24.553Z,8.50
2022-11-23T04:05:33.191Z,8.50
2022-11-23T04:09:41.760Z,8.50
2022-11-23T04:13:50.698Z,8.50
2022-11-23T04:17:59.289Z,8.40
2022-11-23T04:22:07.837Z,8.40
2022-11-23T04:26:16.580Z,8.40
2022-11-23T04:30:25.412Z,8.50
2022-11-23T04:34:53.294Z,8.40
2022-11-23T04:39:04.016Z,8.40
2022-11-23T04:43:12.601Z,8.40
2022-11-23T04:47:21.329Z,8.40
2022-11-23T04:51:29.959Z,8.40
2022-11-23T04:55:38.588Z,8.40
2022-11-23T04:59:47.144Z,8.40
2022-11-23T05:03:55.841Z,8.40
2022-11-23T05:08:04.423Z,8.40
2022-11-23T05:12:13.100Z,8.40
2022-11-23T05:16:21.665Z,8.40
2022-11-23T05:20:30.307Z,8.50
2022-11-23T05:24:58.239Z,8.50
2022-11-23T05:29:06.873Z,8.50
2022-11-23T05:33:15.700Z,8.50
2022-11-23T05:37:24.230Z,8.50
2022-11-23T05:41:32.784Z,8.50
2022-11-23T05:45:42.262Z,8.50
2022-11-23T05:50:11.208Z,8.50
2022-11-23T05:54:19.944Z,8.50
2022-11-23T05:58:28.809Z,8.50
2022-11-23T06:02:41.168Z,8.50
2022-11-23T06:06:49.006Z,8.50
2022-11-23T06:10:57.574Z,8.50
2022-11-23T06:15:06.666Z,8.50
2022-11-23T06:19:15.592Z,8.50
2022-11-23T06:23:25.016Z,8.50
2022-11-23T06:27:33.937Z,8.50
2022-11-23T06:31:42.619Z,8.50
2022-11-23T06:36:11.211Z,8.50
2022-11-23T06:40:20.047Z,8.40
2022-11-23T06:44:28.672Z,8.40
2022-11-23T06:48:37.199Z,8.40
2022-11-23T06:52:45.828Z,8.40
2022-11-23T06:56:54.363Z,8.40
2022-11-23T07:01:05.253Z,8.40
2022-11-23T07:05:14.912Z,8.40
2022-11-23T07:09:23.544Z,8.40
2022-11-23T07:13:32.201Z,8.30
2022-11-23T07:17:43.012Z,8.30
2022-11-23T07:21:51.758Z,8.30
2022-11-23T07:26:00.904Z,8.30
2022-11-23T07:30:10.776Z,8.30
2022-11-23T07:34:20.511Z,8.30
2022-11-23T07:38:29.757Z,8.30
2022-11-23T07:42:44.419Z,8.30
2022-11-23T07:46:49.086Z,8.30
2022-11-23T07:50:57.790Z,8.30
2022-11-23T07:55:07.480Z,8.40
2022-11-23T07:59:16.199Z,8.40
2022-11-23T08:03:28.463Z,8.40
2022-11-23T08:07:36.121Z,8.40
2022-11-23T08:11:45.217Z,8.40
2022-11-23T08:15:55.645Z,8.40
2022-11-23T08:20:04.143Z,8.40
2022-11-23T08:24:13.125Z,8.40
2022-11-23T08:28:22.216Z,8.50
2022-11-23T08:32:30.754Z,8.50
2022-11-23T08:36:39.876Z,8.50
2022-11-23T08:40:48.911Z,8.50
2022-11-23T08:44:59.179Z,8.60
2022-11-23T08:49:08.563Z,8.50
2022-11-23T08:53:17.505Z,8.50
2022-11-23T08:57:26.090Z,8.50
2022-11-23T09:01:54.103Z,8.50
2022-11-23T09:06:02.793Z,8.50
2022-11-23T09:10:30.694Z,8.60
2022-11-23T09:14:39.252Z,8.60
2022-11-23T09:18:49.680Z,8.60
2022-11-23T09:22:59.440Z,8.60
2022-11-23T09:27:08.583Z,8.60
2022-11-23T09:31:17.614Z,8.70
2022-11-23T09:35:26.454Z,8.70
2022-11-23T09:39:35.278Z,8.70
2022-11-23T09:43:58.875Z,8.70
2022-11-23T09:48:28.993Z,8.80
2022-11-23T09:52:43.173Z,8.80
2022-11-23T09:57:00.089Z,8.80
2022-11-23T10:01:08.255Z,8.80
2022-11-23T10:05:23.682Z,8.80
2022-11-23T10:09:54.585Z,8.90
2022-11-23T10:14:24.559Z,8.90
2022-11-23T10:18:47.849Z,8.90
2022-11-23T10:23:05.375Z,8.90
2022-11-23T10:27:17.073Z,8.90
2022-11-23T10:31:28.980Z,8.90
2022-11-23T10:35:39.656Z,9.10
2022-11-23T10:39:48.384Z,9.00
2022-11-23T10:44:02.867Z,9.00
2022-11-23T10:48:11.317Z,9.00
2022-11-23T10:52:34.173Z,8.90
2022-11-23T10:56:48.498Z,9.00
2022-11-23T11:01:05.710Z,9.00
2022-11-23T11:05:17.431Z,9.00
2022-11-23T11:09:26.059Z,9.00
2022-11-23T11:13:45.562Z,9.00
2022-11-23T11:18:00.352Z,9.00
2022-11-23T11:22:29.017Z,8.90
2022-11-23T11:26:39.481Z,9.00
2022-11-23T11:30:51.187Z,9.00
2022-11-23T11:35:12.843Z,9.00
2022-11-23T11:39:42.683Z,8.90
2022-11-23T11:43:54.449Z,9.00
2022-11-23T11:48:22.746Z,9.00
2022-11-23T11:52:40.585Z,9.00
2022-11-23T11:56:55.131Z,9.00
2022-11-23T12:01:09.749Z,9.10
2022-11-23T12:05:30.329Z,9.20
2022-11-23T12:09:42.440Z,9.30
2022-11-23T12:13:53.041Z,9.40
2022-11-23T12:18:11.948Z,9.50
2022-11-23T12:22:29.685Z,9.50
2022-11-23T12:27:04.265Z,9.60
2022-11-23T12:31:40.233Z,9.60
2022-11-23T12:36:07.908Z,9.70
2022-11-23T12:40:20.135Z,9.80
2022-11-23T12:44:49.696Z,9.90
2022-11-23T12:49:13.528Z,10.00
2022-11-23T12:53:40.326Z,9.90
2022-11-23T12:57:57.847Z,9.80
2022-11-23T13:02:09.541Z,9.70
2022-11-23T13:06:36.154Z,9.60
2022-11-23T13:11:24.940Z,9.60
2022-11-23T13:15:57.717Z,9.60
2022-11-23T13:20:15.114Z,9.60
2022-11-23T13:24:33.748Z,9.50
2022-11-23T13:28:42.976Z,9.50
2022-11-23T13:33:03.811Z,9.50
2022-11-23T13:37:13.360Z,9.60
2022-11-23T13:41:40.606Z,9.50
2022-11-23T13:46:08.932Z,9.50
2022-11-23T13:50:19.672Z,9.40
2022-11-23T13:54:28.402Z,9.30
2022-11-23T13:58:39.834Z,9.20
2022-11-23T14:02:48.465Z,9.20
2022-11-23T14:07:22.919Z,9.10
2022-11-23T14:11:55.300Z,9.10
2022-11-23T14:16:05.878Z,9.10
2022-11-23T14:20:30.733Z,9.00
2022-11-23T14:25:03.072Z,9.00
2022-11-23T14:29:17.807Z,9.00
2022-11-23T14:33:58.570Z,9.00
2022-11-23T14:38:32.160Z,9.00
2022-11-23T14:42:41.338Z,9.00
2022-11-23T14:47:05.505Z,9.00
2022-11-23T14:51:17.524Z,9.00
2022-11-23T14:55:31.279Z,9.10
2022-11-23T14:59:41.647Z,9.10
2022-11-23T15:04:01.095Z,9.10
2022-11-23T15:08:24.707Z,9.10
2022-11-23T15:12:48.081Z,9.10
2022-11-23T15:16:56.883Z,9.10
2022-11-23T15:21:14.347Z,9.10
2022-11-23T15:25:24.103Z,9.10
2022-11-23T15:29:38.653Z,9.10
2022-11-23T15:33:50.411Z,9.00
2022-11-23T15:38:00.783Z,8.90
2022-11-23T15:42:18.403Z,8.80
2022-11-23T15:46:30.152Z,8.70
2022-11-23T15:50:56.553Z,8.60
2022-11-23T15:55:10.622Z,8.50
2022-11-23T15:59:32.219Z,8.50
2022-11-23T16:04:04.902Z,8.50
2022-11-23T16:08:27.429Z,8.40
2022-11-23T16:12:39.168Z,8.40
2022-11-23T16:17:08.717Z,8.30
2022-11-23T16:21:20.389Z,8.30
2022-11-23T16:25:34.215Z,8.30
2022-11-23T16:29:43.180Z,8.30
2022-11-23T16:33:51.760Z,8.30
2022-11-23T16:38:00.295Z,8.30
2022-11-23T16:42:19.435Z,8.30
2022-11-23T16:46:28.258Z,8.20
2022-11-23T16:50:36.919Z,8.20
2022-11-23T16:54:46.573Z,8.20
2022-11-23T16:58:55.861Z,8.20
2022-11-23T17:03:04.591Z,8.20
2022-11-23T17:07:13.242Z,8.20
2022-11-23T17:11:25.023Z,8.40
2022-11-23T17:15:33.656Z,8.30
2022-11-23T17:19:42.230Z,8.30
2022-11-23T17:23:51.863Z,8.20
2022-11-23T17:28:01.497Z,8.10
2022-11-23T17:32:19.279Z,8.10
2022-11-23T17:36:28.162Z,8.10
2022-11-23T17:40:36.691Z,8.00
2022-11-23T17:44:52.486Z,8.00
2022-11-23T17:49:02.553Z,8.00
2022-11-23T17:53:11.687Z,8.00
2022-11-23T17:57:25.131Z,7.90
2022-11-23T18:01:33.946Z,7.90
2022-11-23T18:05:42.591Z,7.90
2022-11-23T18:09:51.122Z,7.80
2022-11-23T18:13:59.748Z,7.80
2022-11-23T18:18:08.300Z,7.80
2022-11-23T18:22:19.975Z,7.90
2022-11-23T18:26:30.244Z,7.90
2022-11-23T18:30:39.279Z,7.90
2022-11-23T18:35:07.821Z,7.90
2022-11-23T18:39:16.402Z,7.90
2022-11-23T18:43:24.941Z,7.90
2022-11-23T18:47:33.718Z,8.00
2022-11-23T18:51:42.300Z,8.00
2022-11-23T18:55:54.995Z,8.00
2022-11-23T19:00:02.668Z,8.00
2022-11-23T19:04:11.956Z,7.90
2022-11-23T19:08:20.595Z,8.00
2022-11-23T19:12:30.456Z,7.90
2022-11-23T19:16:39.082Z,7.90
2022-11-23T19:20:47.706Z,7.90
2022-11-23T19:25:03.013Z,7.90
2022-11-23T19:29:11.846Z,7.90
2022-11-23T19:33:20.473Z,7.80
2022-11-23T19:37:29.219Z,7.80
2022-11-23T19:41:37.914Z,7.80
2022-11-23T19:46:07.084Z,7.70
2022-11-23T19:50:16.061Z,7.60
2022-11-23T19:54:25.103Z,7.60
2022-11-23T19:58:34.844Z,7.50
2022-11-23T20:02:43.484Z,7.50
2022-11-23T20:06:52.282Z,7.50
2022-11-23T20:11:09.246Z,7.40
2022-11-23T20:15:17.871Z,7.40
2022-11-23T20:19:27.260Z,7.40
2022-11-23T20:23:35.846Z,7.40
2022-11-23T20:27:44.785Z,7.30
2022-11-23T20:31:53.492Z,7.30
2022-11-23T20:36:10.091Z,7.20
2022-11-23T20:40:18.889Z,7.20
2022-11-23T20:44:33.541Z,7.20
2022-11-23T20:48:38.015Z,7.20
2022-11-23T20:52:47.651Z,7.20
2022-11-23T20:56:57.980Z,7.10
2022-11-23T21:01:14.865Z,7.10
2022-11-23T21:05:23.406Z,7.10
2022-11-23T21:09:32.838Z,7.00
2022-11-23T21:13:59.732Z,7.10
2022-11-23T21:18:08.313Z,7.00
2022-11-23T21:22:18.681Z,7.00
2022-11-23T21:26:27.529Z,7.00
2022-11-23T21:30:37.003Z,7.00
2022-11-23T21:34:46.477Z,7.00
2022-11-23T21:38:55.191Z,7.00
2022-11-23T21:43:03.820Z,6.90
2022-11-23T21:47:24.759Z,6.90
2022-11-23T21:51:34.084Z,6.90
2022-11-23T21:55:42.617Z,6.90
2022-11-23T21:59:51.189Z,6.90
2022-11-23T22:04:05.196Z,6.80
2022-11-23T22:08:28.638Z,6.80
2022-11-23T22:12:24.583Z,6.80
2022-11-23T22:16:36.354Z,6.80
2022-11-23T22:20:45.337Z,6.80
2022-11-23T22:24:53.969Z,6.80
2022-11-23T22:29:05.382Z,6.80
2022-11-23T22:33:13.934Z,6.80
2022-11-23T22:37:22.516Z,6.80
2022-11-23T22:41:37.091Z,6.80
2022-11-23T22:45:46.258Z,6.80
2022-11-23T22:49:54.852Z,6.90
2022-11-23T22:54:03.479Z,7.00
2022-11-23T22:58:11.954Z,7.10
2022-11-23T23:02:20.690Z,7.20
2022-11-23T23:06:34.079Z,7.30
2022-11-23T23:10:42.606Z,7.50
2022-11-23T23:15:11.814Z,7.60
2022-11-23T23:19:20.648Z,7.70
2022-11-23T23:23:29.672Z,7.70
2022-11-23T23:27:38.307Z,7.70
2022-11-23T23:31:46.985Z,7.80
2022-11-23T23:35:55.514Z,7.80
2022-11-23T23:40:05.035Z,7.80
2022-11-23T23:44:13.751Z,7.80
2022-11-23T23:48:22.244Z,7.80
2022-11-23T23:52:30.906Z,7.90
2022-11-23T23:56:39.553Z,7.90
